Niagara Falls, Canada
Current Conditions -  °F | °C
As of 3:53 AM on Sunday 23 Nov 2014 (Local Time) from KIAG Reporting Station
Overcast Overcast  
Wind Chill: 40°   Ceiling: 3200
Heat Index: 46°   Visibility: 10mi
Dew Point: 40°   Wind: 15mph
Humidity: 79%   Direction: 230°SW
Pressure: 29.97"   Gusts: NA
Location:  43.08°N, 79.08°W
Report Text: KIAG 230653Z AUTO 23013KT 10SM SCT024 OVC032 08/04 A2997 RMK AO2 RAE06B20E40 SLP160 P0000 T00780044 $
Loading
Personal Weather Stations






























Interactive Weather Map New forecast layout! Learn more

10-Day Weather Forecast

Advertisements
Track Severe Weather on mobile